Impacts METAR Board
IDs:

KMSP - Minneapolis-St Paul, MN, US

Updated at: 1500 UTC 21 May 2019
Potential Impact None Slight Moderate High
Time 21/03Z 21/04Z 21/05Z 21/06Z 21/07Z 21/08Z 21/09Z 21/10Z 21/11Z 21/12Z 21/13Z 21/14Z 21/15Z
Temp56 56 53 52 50 48 50 49 49 50 51 53 55
Dewpt38 38 39 40 40 41 39 38 38 38 38 39 39
Altim30.11 30.11 30.11 30.11 30.11 30.09 30.10 30.09 30.08 30.08 30.09 30.10 30.08
VIS10 10 10 10 10 10 10 10 10 10 10 10 10
CIG250 250 250 250 -- 250 250 250 200 180 180 170 170
CoverOVCOVCOVCOVCCLROVCOVCOVCOVCOVCOVCOVCOVC
FltCatVFRVFRVFRVFRVFRVFRVFRVFRVFRVFRVFRVFRVFR
WX--------------------------
WDir9080909070509080709080110120
WSpd6 6 5 3 4 6 4 4 6 7 6 10 13
WGst-- -- -- -- -- -- -- -- -- -- -- -- 19
Raw hourly METARs
KMSP 210253Z 09006KT 10SM OVC250 13/03 A3011 RMK AO2 SLP198 T01330033 55006
KMSP 210353Z 08006KT 10SM OVC250 13/03 A3011 RMK AO2 SLP199 T01330033
KMSP 210453Z 09005KT 10SM OVC250 12/04 A3011 RMK AO2 SLP198 T01170039
KMSP 210553Z 09003KT 10SM OVC250 11/04 A3011 RMK AO2 SLP198 T01110044 10156 20111 401720022 51001
KMSP 210653Z 07004KT 10SM CLR 10/04 A3011 RMK AO2 SLP197 T01000044
KMSP 210753Z 05006KT 10SM OVC250 09/05 A3009 RMK AO2 SLP193 T00890050
KMSP 210853Z 09004KT 10SM OVC250 10/04 A3010 RMK AO2 SLP193 T01000039 55005
KMSP 210953Z 08004KT 10SM OVC250 09/03 A3009 RMK AO2 PRESRR SLP189 T00940033
KMSP 211053Z 07006KT 10SM OVC200 09/03 A3008 RMK AO2 SLP187 T00940033
KMSP 211153Z 09007KT 10SM BKN180 OVC250 10/03 A3008 RMK AO2 SLP190 T01000033 10111 20089 55004
KMSP 211253Z 08006KT 10SM BKN180 OVC200 11/03 A3009 RMK AO2 SLP191 T01060033
KMSP 211353Z 11010KT 10SM OVC170 12/04 A3010 RMK AO2 SLP194 T01170039
KMSP 211453Z 12013G19KT 10SM BKN170 OVC250 13/04 A3008 RMK AO2 SLP187 T01280039 58002



Page loaded:  15:29 UTC  |   08:29 AM Pacific  |   09:29 AM Mountain  |   10:29 AM Central  |   11:29 AM Eastern

 

ADVISORIES

FORECASTS

FORECASTS

OBSERVATIONS

USER TOOLS

ABOUT US